Overview Statistics Trail Chart Weather Telemetry Raw packets
 

This is the latest recevied weather packets stored in our database for station/object YD2CLX-11. If no packets are shown the sender has not sent any weather packets the latest 10 day(s).

<< 17 18 19 20 21 22 23 >>
Time Temp. Humidity Pressure Rain* Wind** Luminosity Snow
1788329810 34.44° C 46% 996.8 hPa - - - -
1788329209 35.56° C 44% 997 hPa - - - -
1788328608 36.11° C 43% 997 hPa - - - -
1788328007 36.11° C 43% 997.3 hPa - - - -
1788327405 35° C 45% 997.6 hPa - - - -
1788326804 35.56° C 44% 997.8 hPa - - - -
1788326203 35° C 46% 997.9 hPa - - - -
1788325602 35° C 45% 998.2 hPa - - - -
1788325001 35.56° C 42% 998.4 hPa - - - -
1788324399 36.11° C 41% 998.6 hPa - - - -
1788323798 35.56° C 42% 998.7 hPa - - - -
1788323197 35.56° C 43% 999 hPa - - - -
1788322596 34.44° C 45% 999.2 hPa - - - -
1788321995 34.44° C 44% 999.3 hPa - - - -
1788321394 35° C 43% 999.4 hPa - - - -
1788320811 35.56° C 42% 999.6 hPa - - - -
1788320192 34.44° C 45% 999.8 hPa - - - -
1788319591 35° C 44% 1000 hPa - - - -
1788318990 35° C 44% 1000.2 hPa - - - -
1788318389 34.44° C 45% 1000.5 hPa - - - -
1788317788 34.44° C 43% 1000.7 hPa - - - -
1788317187 35° C 43% 1000.8 hPa - - - -
1788316587 36.11° C 41% 1000.7 hPa - - - -
1788315986 36.11° C 42% 1000.9 hPa - - - -
1788315385 35° C 44% 1001.2 hPa - - - -

* Rain since midnight (hover to see other rain measurements)
** Current wind speed in m/s (hover to see current wind gust speed)